Time;durP1;ratioP1;P1;durP2;ratioP2;P2;SDS_P1;SDS_P2;PMS_P1;PMS_P2;Temp;Humidity;BMP_temperature;BMP_pressure;BME280_temperature;BME280_humidity;BME280_pressure;Samples;Min_cycle;Max_cycle;Signal;HPM_P1;HPM_P2
2023/12/03 00:00:11;;;;;;;1999.90;999.90;;;;;;;8.56;100.00;95667.69;5092699;28;20421;-63
2023/12/03 00:02:39;;;;;;;1999.90;999.90;;;;;;;8.60;100.00;95671.84;5092631;28;20048;-62
2023/12/03 00:05:07;;;;;;;1999.90;999.90;;;;;;;8.58;100.00;95677.13;5092575;28;20051;-62
2023/12/03 00:07:35;;;;;;;1999.90;999.90;;;;;;;8.67;100.00;95668.03;5092526;28;20078;-64
2023/12/03 00:10:02;;;;;;;1999.90;999.90;;;;;;;8.65;100.00;95680.31;5092601;28;20165;-63
2023/12/03 00:12:30;;;;;;;1999.90;999.90;;;;;;;8.73;100.00;95674.75;5092621;28;20509;-63
2023/12/03 00:14:57;;;;;;;1999.90;999.90;;;;;;;8.76;100.00;95679.81;5092560;28;20048;-63
2023/12/03 00:17:26;;;;;;;1999.90;999.90;;;;;;;8.74;100.00;95676.44;5092575;28;20052;-62
2023/12/03 00:19:53;;;;;;;1999.90;999.90;;;;;;;8.68;100.00;95681.94;5092611;28;20090;-61
2023/12/03 00:22:21;;;;;;;1999.90;999.90;;;;;;;8.58;100.00;95677.13;5094571;28;20052;-61
2023/12/03 00:24:48;;;;;;;1999.90;999.90;;;;;;;8.54;100.00;95674.72;5096168;28;20036;-62
2023/12/03 00:27:15;;;;;;;1999.90;999.90;;;;;;;8.49;100.00;95666.22;5095761;28;20639;-63
2023/12/03 00:29:42;;;;;;;1999.90;999.90;;;;;;;8.44;100.00;95680.31;5096118;28;20044;-63
2023/12/03 00:32:09;;;;;;;1999.90;999.90;;;;;;;8.39;100.00;95678.78;5096083;28;20090;-61
2023/12/03 00:34:37;;;;;;;1999.90;999.90;;;;;;;8.36;100.00;95684.16;5095957;28;20122;-62
2023/12/03 00:37:04;;;;;;;1999.90;999.90;;;;;;;8.34;100.00;95677.25;5095907;28;20101;-62
2023/12/03 00:39:32;;;;;;;1999.90;999.90;;;;;;;8.32;100.00;95688.66;5095931;28;20086;-62
2023/12/03 00:41:59;;;;;;;1999.90;999.90;;;;;;;8.31;100.00;95692.19;5095825;28;20048;-62
2023/12/03 00:44:26;;;;;;;1999.90;999.90;;;;;;;8.31;100.00;95690.41;5095786;28;20056;-64
2023/12/03 00:46:53;;;;;;;1999.90;999.90;;;;;;;8.27;100.00;95687.97;5095864;28;20059;-62
2023/12/03 00:49:20;;;;;;;1999.90;999.90;;;;;;;8.27;100.00;95687.97;5095771;28;20052;-64
2023/12/03 00:51:49;;;;;;;1999.90;999.90;;;;;;;8.21;99.52;95695.16;5095617;28;20545;-63
2023/12/03 00:54:16;;;;;;;1999.90;999.90;;;;;;;8.21;100.00;95692.56;5095481;28;20482;-63
2023/12/03 00:56:43;;;;;;;1999.90;999.90;;;;;;;8.16;100.00;95694.50;5095460;28;20057;-62
2023/12/03 00:59:10;;;;;;;1999.90;999.90;;;;;;;8.14;99.86;95693.72;5095552;28;20233;-62
2023/12/03 01:01:37;;;;;;;1999.90;999.90;;;;;;;8.04;99.69;95695.84;5095422;28;20502;-63
2023/12/03 01:04:04;;;;;;;1999.90;999.90;;;;;;;8.02;100.00;95702.03;5095441;28;20044;-62
2023/12/03 01:06:31;;;;;;;1999.90;999.90;;;;;;;8.00;100.00;95707.31;5095353;28;20051;-62
2023/12/03 01:09:00;;;;;;;1999.90;999.90;;;;;;;8.02;100.00;95697.69;5095515;28;20121;-64
2023/12/03 01:11:27;;;;;;;1999.90;999.90;;;;;;;8.06;100.00;95696.66;5095418;28;20052;-62
2023/12/03 01:13:54;;;;;;;1999.90;999.90;;;;;;;8.08;100.00;95700.03;5095192;28;20143;-62
2023/12/03 01:16:21;;;;;;;1999.90;999.90;;;;;;;8.09;100.00;95699.13;5095242;28;20044;-64
2023/12/03 01:18:48;;;;;;;1999.90;999.90;;;;;;;8.05;100.00;95694.09;5095226;28;20089;-64
2023/12/03 01:21:15;;;;;;;1999.90;999.90;;;;;;;8.09;100.00;95698.28;5095079;28;20498;-64
2023/12/03 01:23:42;;;;;;;1999.90;999.90;;;;;;;8.07;100.00;95690.50;5095083;28;20105;-62
2023/12/03 01:26:10;;;;;;;1999.90;999.90;;;;;;;8.06;100.00;95693.19;5094726;28;20079;-62
2023/12/03 01:28:37;;;;;;;1999.90;999.90;;;;;;;8.02;100.00;95702.91;5094939;28;20059;-61
2023/12/03 01:31:05;;;;;;;1999.90;999.90;;;;;;;7.97;100.00;95703.09;5094879;28;20371;-64
2023/12/03 01:33:33;;;;;;;1999.90;999.90;;;;;;;7.97;100.00;95707.44;5094752;28;20086;-63
2023/12/03 01:36:00;;;;;;;1999.90;999.90;;;;;;;7.92;100.00;95706.78;5094778;28;20048;-64
2023/12/03 01:38:27;;;;;;;1999.90;999.90;;;;;;;7.91;100.00;95700.72;5094990;28;20052;-62
2023/12/03 01:40:54;;;;;;;1999.90;999.90;;;;;;;7.90;100.00;95703.38;5094786;28;20052;-64
2023/12/03 01:43:23;;;;;;;1999.90;999.90;;;;;;;7.89;99.29;95706.91;5094682;28;20052;-61
2023/12/03 01:45:50;;;;;;;1999.90;999.90;;;;;;;7.77;99.33;95706.47;5094623;28;20052;-63
2023/12/03 01:48:17;;;;;;;1999.90;999.90;;;;;;;7.70;98.31;95707.63;5094575;28;20101;-62
2023/12/03 01:50:46;;;;;;;1999.90;999.90;;;;;;;7.61;99.29;95701.03;5094491;28;20098;-63
2023/12/03 01:53:16;;;;;;;1999.90;999.90;;;;;;;7.63;99.62;95711.41;5094305;28;20056;-62
2023/12/03 01:55:43;;;;;;;1999.90;999.90;;;;;;;7.61;100.00;95711.47;5094502;28;20135;-62
2023/12/03 01:58:10;;;;;;;1999.90;999.90;;;;;;;7.61;100.00;95721.03;5094437;28;20052;-62
2023/12/03 02:00:38;;;;;;;1999.90;999.90;;;;;;;7.59;100.00;95718.50;5094188;28;20063;-64
2023/12/03 02:03:05;;;;;;;1999.90;999.90;;;;;;;7.60;100.00;95717.56;5094339;28;20417;-62
2023/12/03 02:05:32;;;;;;;1999.90;999.90;;;;;;;7.60;100.00;95722.78;5094398;28;20047;-62
2023/12/03 02:08:00;;;;;;;1999.90;999.90;;;;;;;7.52;99.93;95715.28;5094140;28;20052;-62
2023/12/03 02:10:27;;;;;;;1999.90;999.90;;;;;;;7.48;100.00;95718.91;5094278;28;20079;-63
2023/12/03 02:12:54;;;;;;;1999.90;999.90;;;;;;;7.50;100.00;95706.69;5094104;28;20070;-62
2023/12/03 02:15:21;;;;;;;1999.90;999.90;;;;;;;7.48;100.00;95715.44;5093961;28;20043;-62
2023/12/03 02:17:51;;;;;;;1999.90;999.90;;;;;;;7.48;100.00;95725.84;5094028;28;20040;-64
2023/12/03 02:20:18;;;;;;;1999.90;999.90;;;;;;;7.49;100.00;95728.41;5094051;28;20059;-64
2023/12/03 02:23:00;;;;;;;1999.90;999.90;;;;;;;7.51;100.00;95725.75;5094089;28;20051;-63
2023/12/03 02:25:27;;;;;;;1999.90;999.90;;;;;;;7.50;100.00;95726.66;5093839;28;20044;-64
2023/12/03 02:27:54;;;;;;;1999.90;999.90;;;;;;;7.48;100.00;95721.50;5093580;28;20044;-62
2023/12/03 02:30:21;;;;;;;1999.90;999.90;;;;;;;7.37;100.00;95719.31;5093810;28;20044;-62
2023/12/03 02:32:49;;;;;;;1999.90;999.90;;;;;;;7.34;99.29;95716.81;5093802;28;20040;-63
2023/12/03 02:35:16;;;;;;;1999.90;999.90;;;;;;;7.28;99.53;95724.84;5093636;28;20485;-63
2023/12/03 02:37:43;;;;;;;1999.90;999.90;;;;;;;7.17;100.00;95707.91;5093561;28;20559;-61
2023/12/03 02:40:12;;;;;;;1999.90;999.90;;;;;;;7.20;99.96;95725.16;5093620;28;20048;-63
2023/12/03 02:42:39;;;;;;;1999.90;999.90;;;;;;;7.17;100.00;95720.91;5093598;28;20180;-62
2023/12/03 02:45:09;;;;;;;1999.90;999.90;;;;;;;7.20;100.00;95725.16;5092928;28;20052;-63
2023/12/03 02:47:36;;;;;;;1999.90;999.90;;;;;;;7.23;100.00;95732.00;5093479;28;20067;-64
2023/12/03 02:50:03;;;;;;;1999.90;999.90;;;;;;;7.21;100.00;95729.47;5093463;28;20500;-64
2023/12/03 02:52:30;;;;;;;1999.90;999.90;;;;;;;7.20;99.81;95736.41;5093391;28;20044;-61
2023/12/03 02:54:57;;;;;;;1999.90;999.90;;;;;;;7.22;99.82;95725.13;5093458;28;20460;-63
2023/12/03 02:57:25;;;;;;;1999.90;999.90;;;;;;;7.11;99.86;95731.56;5093267;28;20500;-63
2023/12/03 02:59:53;;;;;;;1999.90;999.90;;;;;;;7.07;99.55;95738.63;5093324;28;20087;-63
2023/12/03 03:02:20;;;;;;;1999.90;999.90;;;;;;;6.83;99.30;95733.41;5093334;28;20135;-63
2023/12/03 03:04:46;;;;;;;1999.90;999.90;;;;;;;6.73;100.00;95729.44;5093166;28;20047;-61
2023/12/03 03:07:13;;;;;;;1999.90;999.90;;;;;;;6.73;100.00;95737.25;5093121;28;20048;-61
2023/12/03 03:09:40;;;;;;;1999.90;999.90;;;;;;;6.70;99.64;95734.75;5093275;28;20050;-63
2023/12/03 03:12:08;;;;;;;1999.90;999.90;;;;;;;6.63;100.00;95731.53;5093274;28;20101;-61
2023/12/03 03:14:36;;;;;;;1999.90;999.90;;;;;;;6.69;100.00;95738.25;5093123;28;20090;-64
2023/12/03 03:17:03;;;;;;;1999.90;999.90;;;;;;;6.72;100.00;95739.91;5093166;28;20056;-63
2023/12/03 03:19:31;;;;;;;1999.90;999.90;;;;;;;6.74;100.00;95733.72;5092978;28;20490;-62
2023/12/03 03:21:58;;;;;;;1999.90;999.90;;;;;;;6.73;100.00;95739.84;5093183;28;20047;-62
2023/12/03 03:24:25;;;;;;;1999.90;999.90;;;;;;;6.75;100.00;95747.59;5092881;28;20051;-62
2023/12/03 03:26:52;;;;;;;1999.90;999.90;;;;;;;6.85;100.00;95761.97;5092720;28;20048;-63
2023/12/03 03:29:19;;;;;;;1999.90;999.90;;;;;;;6.88;100.00;95761.84;5093025;28;20075;-64
2023/12/03 03:31:47;;;;;;;1999.90;999.90;;;;;;;6.87;100.00;95748.91;5093015;28;20123;-64
2023/12/03 03:34:14;;;;;;;1999.90;999.90;;;;;;;6.85;100.00;95761.09;5093114;28;20127;-62
2023/12/03 03:36:41;;;;;;;1999.90;999.90;;;;;;;6.88;100.00;95764.44;5092945;28;20075;-63
2023/12/03 03:39:08;;;;;;;1999.90;999.90;;;;;;;6.77;100.00;95756.19;5092866;28;20078;-63
2023/12/03 03:41:35;;;;;;;1999.90;999.90;;;;;;;6.78;100.00;95755.28;5092901;28;20048;-64
2023/12/03 03:44:02;;;;;;;1999.90;999.90;;;;;;;6.81;100.00;95753.41;5092780;28;20044;-61
2023/12/03 03:46:29;;;;;;;1999.90;999.90;;;;;;;6.85;100.00;95745.50;5092795;28;20055;-62
2023/12/03 03:48:57;;;;;;;1999.90;999.90;;;;;;;6.81;100.00;95742.19;5092879;28;20066;-60
2023/12/03 03:51:25;;;;;;;1999.90;999.90;;;;;;;6.80;100.00;95751.72;5092866;28;20048;-61
2023/12/03 03:53:52;;;;;;;1999.90;999.90;;;;;;;6.82;100.00;95751.66;5092940;28;20040;-63
2023/12/03 03:56:19;;;;;;;1999.90;999.90;;;;;;;6.85;100.00;95748.09;5093234;28;20421;-63
2023/12/03 03:58:46;;;;;;;1999.90;999.90;;;;;;;6.91;100.00;95753.09;5096871;28;20079;-64
2023/12/03 04:01:13;;;;;;;1999.90;999.90;;;;;;;7.00;100.00;95762.28;5096615;28;20058;-62
2023/12/03 04:03:40;;;;;;;1999.90;999.90;;;;;;;7.07;100.00;95758.56;5096640;28;20101;-61
2023/12/03 04:06:09;;;;;;;1999.90;999.90;;;;;;;7.11;100.00;95761.91;5096573;28;20044;-62
2023/12/03 04:08:36;;;;;;;1999.90;999.90;;;;;;;7.08;100.00;95762.88;5096514;28;20048;-63
2023/12/03 04:11:04;;;;;;;1999.90;999.90;;;;;;;7.07;100.00;95761.16;5096435;28;20147;-61
2023/12/03 04:13:31;;;;;;;1999.90;999.90;;;;;;;7.09;100.00;95769.78;5096406;28;20044;-62
2023/12/03 04:15:58;;;;;;;1999.90;999.90;;;;;;;7.15;100.00;95764.34;5096312;28;20083;-62
2023/12/03 04:18:26;;;;;;;1999.90;999.90;;;;;;;7.13;100.00;95760.13;5096337;28;20040;-63
2023/12/03 04:20:53;;;;;;;1999.90;999.90;;;;;;;7.16;100.00;95762.59;5096237;28;20055;-61
2023/12/03 04:23:21;;;;;;;1999.90;999.90;;;;;;;7.11;100.00;95764.53;5096320;28;20048;-63
2023/12/03 04:25:48;;;;;;;1999.90;999.90;;;;;;;7.10;100.00;95758.47;5096271;28;20075;-61
2023/12/03 04:28:16;;;;;;;1999.90;999.90;;;;;;;7.13;100.00;95775.72;5095933;28;20109;-61
2023/12/03 04:30:43;;;;;;;1999.90;999.90;;;;;;;7.11;100.00;95767.13;5096021;28;20044;-61
2023/12/03 04:33:10;;;;;;;1999.90;999.90;;;;;;;7.11;100.00;95782.72;5096024;28;20051;-62
2023/12/03 04:35:37;;;;;;;1999.90;999.90;;;;;;;7.14;100.00;95786.06;5096089;28;20044;-63
2023/12/03 04:38:04;;;;;;;1999.90;999.90;;;;;;;7.16;100.00;95791.19;5095947;28;20051;-62
2023/12/03 04:40:32;;;;;;;1999.90;999.90;;;;;;;7.07;100.00;95781.97;5095874;28;20047;-61
2023/12/03 04:42:59;;;;;;;1999.90;999.90;;;;;;;7.03;100.00;95778.66;5095881;28;20044;-63
2023/12/03 04:45:26;;;;;;;1999.90;999.90;;;;;;;7.08;100.00;95783.69;5095657;28;20489;-61
2023/12/03 04:47:53;;;;;;;1999.90;999.90;;;;;;;7.11;100.00;95785.31;5095556;28;20454;-63
2023/12/03 04:50:20;;;;;;;1999.90;999.90;;;;;;;7.11;100.00;95783.59;5095792;28;20044;-62
2023/12/03 04:52:47;;;;;;;1999.90;999.90;;;;;;;7.14;100.00;95791.28;5095653;28;20101;-62
2023/12/03 04:55:15;;;;;;;1999.90;999.90;;;;;;;7.11;100.00;95786.19;5095626;28;20101;-61
2023/12/03 04:57:43;;;;;;;1999.90;999.90;;;;;;;7.02;100.00;95786.50;5095471;28;20486;-63
2023/12/03 05:00:11;;;;;;;1999.90;999.90;;;;;;;7.08;100.00;95804.50;5095586;28;20383;-62
2023/12/03 05:02:38;;;;;;;1999.90;999.90;;;;;;;7.19;100.00;95802.34;5095526;28;20066;-64
2023/12/03 05:05:06;;;;;;;1999.90;999.90;;;;;;;7.25;100.00;95814.28;5095460;28;20086;-64
2023/12/03 05:07:33;;;;;;;1999.90;999.90;;;;;;;7.26;100.00;95817.75;5094767;28;20048;-63
2023/12/03 05:10:00;;;;;;;1999.90;999.90;;;;;;;7.26;100.00;95816.00;5095333;28;20044;-64
2023/12/03 05:12:27;;;;;;;1999.90;999.90;;;;;;;7.23;100.00;95813.50;5095268;28;20048;-64
2023/12/03 05:14:56;;;;;;;1999.90;999.90;;;;;;;7.19;100.00;95815.34;5095177;28;20463;-61
2023/12/03 05:17:23;;;;;;;1999.90;999.90;;;;;;;7.24;100.00;95824.75;5095211;28;20051;-62
2023/12/03 05:19:50;;;;;;;1999.90;999.90;;;;;;;7.26;100.00;95817.75;5095170;28;20052;-62
2023/12/03 05:22:17;;;;;;;1999.90;999.90;;;;;;;7.27;100.00;95814.22;5095142;28;20048;-64
2023/12/03 05:24:44;;;;;;;1999.90;999.90;;;;;;;7.30;100.00;95817.56;5095045;28;20048;-63
2023/12/03 05:27:11;;;;;;;1999.90;999.90;;;;;;;7.32;100.00;95820.94;5094651;28;20055;-61
2023/12/03 05:29:44;;;;;;;1999.90;999.90;;;;;;;7.34;100.00;95823.50;5094960;28;20101;-61
2023/12/03 05:32:13;;;;;;;1999.90;999.90;;;;;;;7.30;100.00;95822.78;5094885;28;20044;-62
2023/12/03 05:34:45;;;;;;;1999.90;999.90;;;;;;;7.31;100.00;95829.66;5094891;28;20083;-63
2023/12/03 05:37:13;;;;;;;1999.90;999.90;;;;;;;7.35;100.00;95826.97;5094817;28;20090;-62
2023/12/03 05:39:40;;;;;;;1999.90;999.90;;;;;;;7.43;100.00;95823.16;5094767;28;20112;-62
2023/12/03 05:42:08;;;;;;;1999.90;999.90;;;;;;;7.47;100.00;95823.91;5094703;28;20131;-63
2023/12/03 05:44:35;;;;;;;1999.90;999.90;;;;;;;7.52;100.00;95824.56;5094715;28;20465;-63
2023/12/03 05:47:03;;;;;;;1999.90;999.90;;;;;;;7.56;100.00;95827.94;5094531;28;20051;-63
2023/12/03 05:49:32;;;;;;;1999.90;999.90;;;;;;;7.55;100.00;95831.41;5094559;28;20052;-64
2023/12/03 05:52:00;;;;;;;1999.90;999.90;;;;;;;7.58;100.00;95836.50;5094642;28;20052;-62
2023/12/03 05:54:27;;;;;;;1999.90;999.90;;;;;;;7.66;100.00;95839.69;5094562;28;20413;-62
2023/12/03 05:56:55;;;;;;;1999.90;999.90;;;;;;;7.70;100.00;95838.66;5094501;28;20104;-63
2023/12/03 05:59:22;;;;;;;1999.90;999.90;;;;;;;7.63;100.00;95834.59;5094396;28;20040;-62
2023/12/03 06:01:51;;;;;;;1999.90;999.90;;;;;;;7.69;100.00;95838.72;5094326;28;20040;-63
2023/12/03 06:04:18;;;;;;;1999.90;999.90;;;;;;;7.75;100.00;95841.09;5094355;28;20048;-62
2023/12/03 06:06:47;;;;;;;1999.90;999.90;;;;;;;7.84;100.00;95835.53;5094209;28;20044;-64
2023/12/03 06:09:14;;;;;;;1999.90;999.90;;;;;;;7.89;100.00;95839.72;5094166;28;20126;-61
2023/12/03 06:11:42;;;;;;;1999.90;999.90;;;;;;;7.90;100.00;95837.06;5094109;28;20127;-62
2023/12/03 06:14:09;;;;;;;1999.90;999.90;;;;;;;7.96;100.00;95833.38;5094343;28;20085;-61
2023/12/03 06:16:36;;;;;;;1999.90;999.90;;;;;;;8.06;100.00;95831.22;5093951;28;20051;-63
2023/12/03 06:19:03;;;;;;;1999.90;999.90;;;;;;;8.19;100.00;95829.84;5093097;28;20048;-62
2023/12/03 06:21:32;;;;;;;1999.90;999.90;;;;;;;8.30;100.00;95829.41;5094048;28;20379;-64
2023/12/03 06:24:01;;;;;;;1999.90;999.90;;;;;;;8.38;100.00;95834.34;5093850;28;20456;-61
2023/12/03 06:26:28;;;;;;;1999.90;999.90;;;;;;;8.44;100.00;95826.28;5093675;28;20056;-63
2023/12/03 06:28:55;;;;;;;1999.90;999.90;;;;;;;8.53;100.00;95832.00;5093746;28;20047;-62
2023/12/03 06:31:22;;;;;;;1999.90;999.90;;;;;;;8.68;100.00;95838.38;5093850;28;20139;-63
2023/12/03 06:33:49;;;;;;;1999.90;999.90;;;;;;;8.79;100.00;95843.97;5093770;28;20076;-63
2023/12/03 06:36:16;;;;;;;1999.90;999.90;;;;;;;8.79;100.00;95848.38;5093592;28;20135;-61
2023/12/03 06:38:43;;;;;;;1999.90;999.90;;;;;;;8.75;100.00;95850.25;5093707;28;20127;-63
2023/12/03 06:41:12;;;;;;;1999.90;999.90;;;;;;;8.78;100.00;95854.47;5093518;28;20051;-64
2023/12/03 06:43:39;;;;;;;1999.90;999.90;;;;;;;8.82;100.00;95859.50;5093535;28;20048;-63
2023/12/03 06:46:07;;;;;;;1999.90;999.90;;;;;;;8.87;100.00;95866.28;5093398;28;20549;-62
2023/12/03 06:48:34;;;;;;;1999.90;999.90;;;;;;;8.92;100.00;95878.22;5093467;28;20043;-62
2023/12/03 06:51:02;;;;;;;1999.90;999.90;;;;;;;8.93;100.00;95885.13;5093634;28;20098;-61
2023/12/03 06:53:30;;;;;;;1999.90;999.90;;;;;;;8.94;100.00;95884.22;5093438;28;20122;-62
2023/12/03 06:55:57;;;;;;;1999.90;999.90;;;;;;;8.92;100.00;95887.81;5093397;28;20074;-63
2023/12/03 06:58:26;;;;;;;1999.90;999.90;;;;;;;8.95;100.00;95885.94;5093340;28;20139;-64
2023/12/03 07:00:53;;;;;;;1999.90;999.90;;;;;;;9.01;100.00;95887.44;5093335;28;20044;-62
2023/12/03 07:03:21;;;;;;;1999.90;999.90;;;;;;;9.07;100.00;95892.41;5093246;28;20052;-64
2023/12/03 07:05:49;;;;;;;1999.90;999.90;;;;;;;9.12;100.00;95889.56;5093350;28;20044;-62
2023/12/03 07:08:17;;;;;;;1999.90;999.90;;;;;;;9.15;100.00;95901.66;5093064;28;20047;-62
2023/12/03 07:10:44;;;;;;;1999.90;999.90;;;;;;;9.15;100.00;95899.03;5093190;28;20059;-64
2023/12/03 07:13:12;;;;;;;1999.90;999.90;;;;;;;9.20;100.00;95907.50;5093086;28;20414;-62
2023/12/03 07:15:41;;;;;;;1999.90;999.90;;;;;;;9.30;100.00;95902.75;5093043;28;20040;-61
2023/12/03 07:18:08;;;;;;;1999.90;999.90;;;;;;;9.39;100.00;95904.13;5093117;28;20048;-64
2023/12/03 07:20:36;;;;;;;1999.90;999.90;;;;;;;9.47;100.00;95909.84;5093143;28;20054;-64
2023/12/03 07:23:03;;;;;;;1999.90;999.90;;;;;;;9.56;100.00;95913.81;5093096;28;20131;-62
2023/12/03 07:25:31;;;;;;;1999.90;999.90;;;;;;;9.60;100.00;95905.78;5092991;28;20139;-61
2023/12/03 07:27:58;;;;;;;1999.90;999.90;;;;;;;9.63;100.00;95898.75;5092731;28;20056;-64
2023/12/03 07:30:26;;;;;;;1999.90;999.90;;;;;;;9.67;100.00;95906.38;5093858;28;20428;-64
2023/12/03 07:32:54;;;;;;;1999.90;999.90;;;;;;;9.75;100.00;95911.22;5097155;28;20047;-62
2023/12/03 07:35:23;;;;;;;1999.90;999.90;;;;;;;9.83;100.00;95911.75;5097114;28;20497;-63
2023/12/03 07:37:50;;;;;;;1999.90;999.90;;;;;;;9.98;100.00;95909.34;5097061;28;20544;-63
2023/12/03 07:40:18;;;;;;;1999.90;999.90;;;;;;;10.14;100.00;95906.88;5097004;28;20056;-62
2023/12/03 07:42:45;;;;;;;1999.90;999.90;;;;;;;10.26;100.00;95910.69;5096913;28;20079;-62
2023/12/03 07:45:13;;;;;;;1999.90;999.90;;;;;;;10.33;100.00;95914.69;5096977;28;20080;-63
2023/12/03 07:47:40;;;;;;;1999.90;999.90;;;;;;;10.43;100.00;95917.75;5096962;28;20048;-64
2023/12/03 07:50:09;;;;;;;1999.90;999.90;;;;;;;10.58;100.00;95915.34;5096922;28;20113;-61
2023/12/03 07:52:37;;;;;;;1999.90;999.90;;;;;;;10.67;100.00;95916.66;5097000;28;20044;-63
2023/12/03 07:55:04;;;;;;;1999.90;999.90;;;;;;;10.70;100.00;95930.44;5096799;28;20047;-64
2023/12/03 07:57:31;;;;;;;1999.90;999.90;;;;;;;10.72;100.00;95939.06;5096700;28;20451;-62
2023/12/03 07:59:59;;;;;;;1999.90;999.90;;;;;;;10.78;100.00;95937.06;5096640;28;20051;-63
2023/12/03 08:02:26;;;;;;;1999.90;999.90;;;;;;;10.80;100.00;95941.31;5096696;28;20047;-62
2023/12/03 08:04:53;;;;;;;1999.90;999.90;;;;;;;10.82;100.00;95941.22;5096602;28;20490;-63
2023/12/03 08:07:22;;;;;;;1999.90;999.90;;;;;;;10.70;100.00;95934.81;5096615;28;20137;-63
2023/12/03 08:09:50;;;;;;;1999.90;999.90;;;;;;;10.67;98.40;95934.97;5096441;28;20056;-61
2023/12/03 08:12:17;;;;;;;1999.90;999.90;;;;;;;10.81;93.53;95927.28;5096531;28;20051;-64
2023/12/03 08:14:44;;;;;;;1999.90;999.90;;;;;;;11.02;90.35;95929.81;5096420;28;20122;-62
2023/12/03 08:17:12;;;;;;;1999.90;999.90;;;;;;;11.20;88.00;95935.88;5096396;28;20059;-64
2023/12/03 08:19:40;;;;;;;1999.90;999.90;;;;;;;11.31;85.25;95931.84;5096349;28;20040;-62
2023/12/03 08:22:07;;;;;;;1999.90;999.90;;;;;;;11.41;84.10;95932.25;5096177;28;20135;-63
2023/12/03 08:24:36;;;;;;;1999.90;999.90;;;;;;;11.47;82.48;95926.72;5096150;28;20622;-63
2023/12/03 08:27:05;;;;;;;1999.90;999.90;;;;;;;11.54;82.68;95928.09;5061232;28;20615;-61
2023/12/03 08:29:33;;;;;;;1999.90;999.90;;;;;;;11.57;79.53;95945.41;5096045;28;20506;-63
2023/12/03 08:32:01;;;;;;;1999.90;999.90;;;;;;;11.66;76.12;95957.19;5096035;28;20169;-63
2023/12/03 08:34:32;;;;;;;1999.90;999.90;;;;;;;11.79;75.50;95960.00;5077946;28;20083;-61
2023/12/03 08:37:00;;;;;;;1999.90;999.90;;;;;;;11.80;74.28;95964.31;5096025;28;20050;-64
2023/12/03 08:39:29;;;;;;;1999.90;999.90;;;;;;;11.87;72.17;95960.47;5095929;28;20122;-61
2023/12/03 08:42:06;;;;;;;1999.90;999.90;;;;;;;11.93;73.54;95959.28;5094961;28;20509;-62
2023/12/03 08:44:48;;;;;;;1999.90;999.90;;;;;;;11.96;72.23;95949.50;5095827;28;20075;-61
2023/12/03 08:47:17;;;;;;;1999.90;999.90;;;;;;;11.93;71.04;95938.31;5095911;28;20052;-63
2023/12/03 08:49:46;;;;;;;1999.90;999.90;;;;;;;11.92;70.59;95934.00;5095852;28;20062;-63
2023/12/03 08:52:15;;;;;;;1999.90;999.90;;;;;;;11.90;70.67;95935.84;5095802;28;20482;-64
2023/12/03 08:54:42;;;;;;;1999.90;999.90;;;;;;;11.95;69.91;95936.47;5095620;28;20501;-63
2023/12/03 08:57:11;;;;;;;1999.90;999.90;;;;;;;11.98;68.77;95939.75;5095628;28;20060;-64
2023/12/03 08:59:38;;;;;;;1999.90;999.90;;;;;;;12.07;69.04;95941.06;5095566;28;20130;-61
2023/12/03 09:02:06;;;;;;;1999.90;999.90;;;;;;;12.11;68.67;95953.09;5095507;28;20044;-62
2023/12/03 09:04:32;;;;;;;1999.90;999.90;;;;;;;12.14;67.88;95954.72;5095441;28;20059;-62
2023/12/03 09:07:00;;;;;;;1999.90;999.90;;;;;;;12.10;67.50;95950.56;5095419;28;20090;-64
2023/12/03 09:09:27;;;;;;;1999.90;999.90;;;;;;;12.12;66.92;95967.91;5095272;28;20151;-64
2023/12/03 09:11:54;;;;;;;1999.90;999.90;;;;;;;12.12;66.79;95965.28;5095270;28;20094;-62
2023/12/03 09:14:25;;;;;;;1999.90;999.90;;;;;;;12.13;65.91;95969.59;5095217;28;20044;-63
2023/12/03 09:16:52;;;;;;;1999.90;999.90;;;;;;;12.17;65.52;95970.28;5095183;28;20044;-65
2023/12/03 09:19:19;;;;;;;1999.90;999.90;;;;;;;12.22;65.06;95970.88;5095316;28;20494;-63
2023/12/03 09:21:47;;;;;;;1999.90;999.90;;;;;;;12.25;65.04;95972.47;5095175;28;20063;-63
2023/12/03 09:24:17;;;;;;;1999.90;999.90;;;;;;;12.29;65.49;95950.41;5095126;28;20044;-64
2023/12/03 09:26:45;;;;;;;1999.90;999.90;;;;;;;12.26;64.83;95961.91;5094851;28;20048;-62
2023/12/03 09:29:13;;;;;;;1999.90;999.90;;;;;;;12.26;64.79;95975.00;5094915;28;20052;-63
2023/12/03 09:31:42;;;;;;;1999.90;999.90;;;;;;;12.31;64.45;95958.19;5094903;28;20055;-63
2023/12/03 09:34:09;;;;;;;1999.90;999.90;;;;;;;12.29;64.57;95952.19;5094924;28;20475;-62
2023/12/03 09:36:37;;;;;;;1999.90;999.90;;;;;;;12.31;64.57;95956.41;5094956;28;20056;-64
2023/12/03 09:39:05;;;;;;;1999.90;999.90;;;;;;;12.28;64.09;95972.31;5094835;28;20119;-61
2023/12/03 09:41:33;;;;;;;1999.90;999.90;;;;;;;12.29;63.99;95963.53;5094686;28;20456;-62
2023/12/03 09:44:16;;;;;;;1999.90;999.90;;;;;;;12.29;64.14;95973.16;5094634;28;20079;-64
2023/12/03 09:46:46;;;;;;;1999.90;999.90;;;;;;;12.32;64.07;95959.88;5094657;28;20379;-62
2023/12/03 09:49:16;;;;;;;1999.90;999.90;;;;;;;12.31;63.67;95968.69;5094533;28;20044;-63
2023/12/03 09:51:43;;;;;;;1999.90;999.90;;;;;;;12.38;63.09;95970.03;5094531;28;20102;-63
2023/12/03 09:54:11;;;;;;;1999.90;999.90;;;;;;;12.44;63.14;95974.09;5094525;28;20044;-64
2023/12/03 09:56:40;;;;;;;1999.90;999.90;;;;;;;12.42;62.39;95984.69;5094611;28;20122;-63
2023/12/03 09:59:10;;;;;;;1999.90;999.90;;;;;;;12.45;62.66;95988.91;5094522;28;20087;-62
2023/12/03 10:01:38;;;;;;;1999.90;999.90;;;;;;;12.42;61.65;95975.94;5094275;28;20058;-62
2023/12/03 10:04:07;;;;;;;1999.90;999.90;;;;;;;12.42;62.03;95958.44;5094320;28;20052;-63
2023/12/03 10:06:37;;;;;;;1999.90;999.90;;;;;;;12.37;61.68;95957.84;5094315;28;20083;-63
2023/12/03 10:09:05;;;;;;;1999.90;999.90;;;;;;;12.40;61.98;95964.72;5094140;28;20086;-63
2023/12/03 10:11:39;;;;;;;1999.90;999.90;;;;;;;12.38;62.08;95967.44;5094237;28;20406;-64
2023/12/03 10:14:09;;;;;;;1999.90;999.90;;;;;;;12.43;61.60;95970.63;5094132;28;20382;-64
2023/12/03 10:16:37;;;;;;;1999.90;999.90;;;;;;;12.45;61.46;95979.28;5094111;28;20097;-65
2023/12/03 10:19:04;;;;;;;1999.90;999.90;;;;;;;12.43;61.17;95996.84;5093996;28;20413;-64
2023/12/03 10:21:33;;;;;;;1999.90;999.90;;;;;;;12.35;61.95;95984.19;5094039;28;20044;-63
2023/12/03 10:24:03;;;;;;;1999.90;999.90;;;;;;;12.36;61.84;95987.63;5094038;28;20552;-62
2023/12/03 10:26:33;;;;;;;1999.90;999.90;;;;;;;12.32;61.89;95981.72;5093643;28;20135;-62
2023/12/03 10:29:00;;;;;;;1999.90;999.90;;;;;;;12.29;61.85;95975.78;5093757;28;20052;-66
2023/12/03 10:31:32;;;;;;;1999.90;999.90;;;;;;;12.31;61.81;95968.69;5093914;28;20040;-65
2023/12/03 10:33:59;;;;;;;1999.90;999.90;;;;;;;12.23;61.76;95966.47;5093818;28;20044;-63
2023/12/03 10:36:33;;;;;;;1999.90;999.90;;;;;;;12.22;61.94;95976.09;5093775;28;20519;-64
2023/12/03 10:39:01;;;;;;;1999.90;999.90;;;;;;;12.24;62.24;95976.88;5093667;28;20044;-62
2023/12/03 10:41:28;;;;;;;1999.90;999.90;;;;;;;12.15;62.13;95966.03;5093679;28;20477;-63
2023/12/03 10:43:57;;;;;;;1999.90;999.90;;;;;;;12.13;62.99;95971.34;5093745;28;20136;-64
2023/12/03 10:46:25;;;;;;;1999.90;999.90;;;;;;;12.12;62.89;95967.03;5093508;28;20486;-61
2023/12/03 10:48:53;;;;;;;1999.90;999.90;;;;;;;12.12;63.11;95970.53;5093469;28;20134;-65
2023/12/03 10:51:21;;;;;;;1999.90;999.90;;;;;;;12.12;63.05;95967.03;5093699;28;20056;-65
2023/12/03 10:53:50;;;;;;;1999.90;999.90;;;;;;;12.01;63.22;95976.28;5093376;28;20106;-62
2023/12/03 10:56:18;;;;;;;1999.90;999.90;;;;;;;12.00;63.56;95977.22;5093432;28;20117;-63